createdAt,value
2023-05-14T00:01:52.170Z,2.05
2023-05-14T00:04:22.555Z,2.50
2023-05-14T00:06:49.833Z,2.70
2023-05-14T00:09:17.254Z,2.17
2023-05-14T00:11:44.650Z,2.50
2023-05-14T00:14:12.013Z,2.67
2023-05-14T00:16:39.310Z,2.25
2023-05-14T00:19:06.705Z,2.45
2023-05-14T00:21:34.508Z,2.25
2023-05-14T00:24:01.837Z,2.42
2023-05-14T00:26:29.098Z,1.88
2023-05-14T00:28:56.555Z,2.55
2023-05-14T00:31:24.035Z,2.75
2023-05-14T00:33:51.305Z,2.40
2023-05-14T00:36:18.455Z,2.47
2023-05-14T00:38:45.815Z,2.50
2023-05-14T00:41:13.221Z,2.47
2023-05-14T00:43:41.045Z,2.40
2023-05-14T00:46:08.806Z,2.42
2023-05-14T00:48:36.264Z,2.30
2023-05-14T00:51:03.805Z,2.35
2023-05-14T00:53:31.588Z,2.50
2023-05-14T00:55:59.347Z,2.58
2023-05-14T00:58:26.686Z,2.42
2023-05-14T01:00:53.951Z,2.35
2023-05-14T01:03:21.515Z,2.30
2023-05-14T01:06:07.477Z,2.47
2023-05-14T01:08:35.144Z,2.78
2023-05-14T01:11:11.682Z,2.63
2023-05-14T01:13:56.224Z,2.45
2023-05-14T01:16:28.277Z,2.58
2023-05-14T01:19:08.186Z,2.72
2023-05-14T01:21:42.977Z,2.47
2023-05-14T01:24:10.750Z,2.90
2023-05-14T01:26:38.330Z,2.30
2023-05-14T01:29:22.464Z,2.63
2023-05-14T01:31:51.494Z,2.90
2023-05-14T01:34:23.309Z,2.53
2023-05-14T01:36:52.366Z,2.75
2023-05-14T01:39:20.537Z,2.70
2023-05-14T01:41:48.972Z,2.90
2023-05-14T01:44:16.628Z,2.80
2023-05-14T01:46:43.951Z,2.60
2023-05-14T01:49:11.307Z,2.35
2023-05-14T01:51:38.522Z,2.38
2023-05-14T01:54:05.956Z,2.40
2023-05-14T01:56:33.246Z,2.80
2023-05-14T01:59:00.485Z,2.63
2023-05-14T02:01:28.004Z,2.80
2023-05-14T02:03:55.482Z,2.80
2023-05-14T02:06:23.060Z,2.80
2023-05-14T02:08:51.057Z,3.17
2023-05-14T02:11:18.368Z,3.05
2023-05-14T02:13:45.667Z,2.83
2023-05-14T02:16:13.276Z,2.80
2023-05-14T02:18:40.881Z,2.70
2023-05-14T02:21:08.317Z,3.10
2023-05-14T02:23:41.428Z,2.45
2023-05-14T02:26:10.654Z,2.35
2023-05-14T02:28:37.981Z,2.53
2023-05-14T02:31:05.334Z,2.63
2023-05-14T02:33:32.958Z,2.55
2023-05-14T02:36:00.138Z,2.47
2023-05-14T02:38:28.181Z,2.67
2023-05-14T02:40:57.360Z,2.80
2023-05-14T02:43:24.652Z,2.70
2023-05-14T02:45:52.626Z,2.15
2023-05-14T02:48:20.071Z,2.28
2023-05-14T02:50:48.560Z,2.50
2023-05-14T02:53:15.900Z,2.90
2023-05-14T02:55:43.456Z,2.65
2023-05-14T02:58:11.229Z,2.55
2023-05-14T03:00:39.014Z,2.40
2023-05-14T03:03:06.787Z,2.55
2023-05-14T03:05:34.670Z,2.42
2023-05-14T03:08:01.954Z,2.47
2023-05-14T03:10:29.540Z,2.38
2023-05-14T03:12:56.952Z,2.83
2023-05-14T03:15:24.319Z,2.50
2023-05-14T03:17:51.930Z,2.45
2023-05-14T03:20:19.260Z,2.85
2023-05-14T03:22:47.199Z,2.55
2023-05-14T03:25:14.856Z,2.50
2023-05-14T03:27:42.162Z,2.80
2023-05-14T03:30:11.025Z,2.70
2023-05-14T03:32:38.356Z,2.53
2023-05-14T03:35:06.433Z,2.42
2023-05-14T03:37:33.591Z,2.58
2023-05-14T03:40:00.917Z,2.88
2023-05-14T03:42:28.219Z,2.60
2023-05-14T03:44:55.352Z,2.83
2023-05-14T03:47:22.571Z,2.70
2023-05-14T03:49:50.396Z,2.60
2023-05-14T03:52:17.902Z,2.42
2023-05-14T03:54:45.592Z,2.67
2023-05-14T03:57:13.264Z,2.45
2023-05-14T03:59:41.604Z,2.67
2023-05-14T04:02:08.990Z,2.67
2023-05-14T04:04:36.377Z,3.00
2023-05-14T04:07:03.788Z,2.30
2023-05-14T04:09:31.063Z,2.60
2023-05-14T04:11:58.423Z,2.67
2023-05-14T04:14:26.249Z,2.92
2023-05-14T04:16:53.654Z,3.00
2023-05-14T04:19:21.728Z,2.50
2023-05-14T04:21:48.926Z,2.55
2023-05-14T04:24:17.313Z,3.10
2023-05-14T04:26:44.781Z,2.70
2023-05-14T04:29:11.975Z,2.85
2023-05-14T04:31:39.840Z,2.47
2023-05-14T04:34:07.499Z,2.90
2023-05-14T04:36:34.810Z,2.78
2023-05-14T04:39:02.189Z,2.70
2023-05-14T04:41:29.491Z,2.75
2023-05-14T04:43:57.172Z,2.30
2023-05-14T04:46:24.812Z,2.38
2023-05-14T04:48:52.477Z,2.60
2023-05-14T04:51:19.904Z,2.78
2023-05-14T04:53:47.228Z,2.90
2023-05-14T04:56:14.571Z,2.78
2023-05-14T04:58:41.770Z,2.80
2023-05-14T05:01:09.414Z,2.63
2023-05-14T05:03:37.031Z,2.83
2023-05-14T05:06:04.779Z,2.45
2023-05-14T05:08:32.196Z,2.47
2023-05-14T05:10:59.541Z,2.65
2023-05-14T05:13:26.978Z,2.33
2023-05-14T05:15:54.332Z,2.10
2023-05-14T05:18:21.921Z,2.55
2023-05-14T05:20:49.303Z,2.53
2023-05-14T05:23:16.698Z,2.47
2023-05-14T05:25:44.090Z,2.40
2023-05-14T05:28:11.211Z,2.40
2023-05-14T05:30:38.697Z,2.45
2023-05-14T05:33:05.959Z,2.80
2023-05-14T05:35:33.603Z,2.20
2023-05-14T05:38:01.746Z,2.40
2023-05-14T05:40:29.648Z,2.05
2023-05-14T05:42:57.039Z,2.20
2023-05-14T05:45:24.397Z,2.25
2023-05-14T05:47:51.764Z,2.17
2023-05-14T05:50:19.970Z,2.25
2023-05-14T05:52:47.605Z,1.98
2023-05-14T05:55:15.034Z,2.72
2023-05-14T05:57:42.523Z,2.00
2023-05-14T06:00:13.364Z,1.95
2023-05-14T06:02:42.021Z,2.20
2023-05-14T06:05:10.515Z,2.28
2023-05-14T06:07:37.915Z,2.10
2023-05-14T06:10:05.606Z,1.80
2023-05-14T06:12:33.305Z,1.88
2023-05-14T06:15:00.712Z,1.85
2023-05-14T06:17:28.257Z,2.05
2023-05-14T06:19:55.655Z,1.52
2023-05-14T06:22:23.040Z,1.50
2023-05-14T06:24:50.463Z,1.52
2023-05-14T06:27:18.002Z,1.67
2023-05-14T06:29:45.458Z,1.73
2023-05-14T06:32:15.841Z,1.80
2023-05-14T06:34:44.136Z,1.90
2023-05-14T06:37:11.709Z,1.50
2023-05-14T06:39:39.498Z,1.42
2023-05-14T06:42:07.578Z,1.38
2023-05-14T06:44:35.096Z,1.75
2023-05-14T06:47:02.260Z,1.52
2023-05-14T06:49:29.365Z,1.33
2023-05-14T06:51:56.574Z,1.60
2023-05-14T06:54:24.042Z,1.45
2023-05-14T06:56:51.423Z,1.85
2023-05-14T06:59:18.636Z,1.50
2023-05-14T07:01:46.016Z,1.60
2023-05-14T07:04:13.228Z,1.20
2023-05-14T07:06:41.043Z,1.40
2023-05-14T07:09:08.421Z,1.10
2023-05-14T07:11:35.756Z,1.30
2023-05-14T07:14:03.121Z,1.27
2023-05-14T07:16:30.593Z,1.10
2023-05-14T07:18:57.896Z,1.25
2023-05-14T07:21:25.068Z,1.20
2023-05-14T07:23:52.579Z,1.20
2023-05-14T07:26:19.859Z,1.27
2023-05-14T07:28:47.148Z,1.20
2023-05-14T07:31:14.960Z,1.00
2023-05-14T07:33:42.152Z,1.20
2023-05-14T07:36:09.378Z,1.30
2023-05-14T07:38:36.827Z,1.20
2023-05-14T07:41:04.400Z,1.23
2023-05-14T07:43:31.852Z,1.40
2023-05-14T07:45:59.375Z,1.13
2023-05-14T07:48:26.646Z,1.10
2023-05-14T07:50:57.214Z,1.10
2023-05-14T07:53:25.149Z,1.13
2023-05-14T07:55:52.363Z,1.00
2023-05-14T07:58:19.749Z,1.40
2023-05-14T08:00:47.289Z,1.38
2023-05-14T08:03:15.103Z,1.40
2023-05-14T08:05:42.463Z,1.40
2023-05-14T08:08:09.658Z,1.30
2023-05-14T08:10:37.122Z,1.38
2023-05-14T08:13:04.771Z,1.30
2023-05-14T08:15:32.231Z,1.30
2023-05-14T08:18:04.364Z,1.30
2023-05-14T08:20:32.065Z,1.40
2023-05-14T08:22:59.487Z,1.40
2023-05-14T08:25:26.808Z,1.25
2023-05-14T08:27:54.434Z,1.30
2023-05-14T08:30:23.066Z,1.60
2023-05-14T08:32:51.038Z,1.42
2023-05-14T08:35:18.410Z,1.30
2023-05-14T08:37:46.194Z,1.60
2023-05-14T08:40:13.727Z,1.27
2023-05-14T08:42:41.843Z,1.40
2023-05-14T08:45:18.703Z,1.20
2023-05-14T08:47:52.380Z,1.50
2023-05-14T08:50:23.758Z,1.40
2023-05-14T08:52:52.161Z,1.42
2023-05-14T08:55:20.250Z,1.15
2023-05-14T08:57:49.316Z,1.20
2023-05-14T09:00:16.901Z,1.50
2023-05-14T09:02:46.770Z,1.20
2023-05-14T09:05:15.432Z,1.52
2023-05-14T09:07:42.934Z,1.20
2023-05-14T09:10:12.040Z,1.45
2023-05-14T09:12:42.091Z,1.40
2023-05-14T09:15:09.773Z,1.55
2023-05-14T09:17:37.285Z,1.30
2023-05-14T09:20:06.124Z,1.30
2023-05-14T09:22:35.152Z,1.50
2023-05-14T09:25:07.418Z,1.20
2023-05-14T09:27:35.477Z,1.80
2023-05-14T09:30:11.219Z,1.40
2023-05-14T09:32:50.467Z,1.55
2023-05-14T09:35:20.847Z,1.27
2023-05-14T09:37:53.857Z,1.67
2023-05-14T09:40:23.996Z,1.65
2023-05-14T09:42:51.785Z,1.23
2023-05-14T09:45:19.628Z,1.65
2023-05-14T09:47:46.967Z,1.58
2023-05-14T09:50:14.414Z,1.30
2023-05-14T09:52:42.785Z,1.60
2023-05-14T09:55:10.307Z,1.20
2023-05-14T09:57:37.810Z,1.27
2023-05-14T10:00:05.729Z,1.35
2023-05-14T10:02:38.405Z,1.30
2023-05-14T10:07:41.793Z,1.50
2023-05-14T10:10:13.782Z,1.30
2023-05-14T10:12:43.560Z,1.17
2023-05-14T10:15:19.854Z,1.38
2023-05-14T10:17:52.823Z,1.52
2023-05-14T10:20:20.931Z,1.20
2023-05-14T10:22:48.478Z,1.27
2023-05-14T10:25:16.474Z,1.20
2023-05-14T10:27:44.203Z,1.40
2023-05-14T10:30:15.222Z,1.20
2023-05-14T10:32:44.331Z,1.10
2023-05-14T10:35:26.670Z,1.10
2023-05-14T10:37:53.915Z,1.20
2023-05-14T10:40:25.139Z,1.13
2023-05-14T10:42:55.225Z,1.35
2023-05-14T10:45:23.294Z,1.65
2023-05-14T10:47:50.621Z,1.52
2023-05-14T10:50:18.612Z,1.50
2023-05-14T10:52:46.364Z,1.35
2023-05-14T10:55:15.492Z,1.40
2023-05-14T10:57:45.722Z,1.50
2023-05-14T11:00:14.761Z,1.42
2023-05-14T11:02:44.676Z,1.48
2023-05-14T11:05:16.069Z,1.27
2023-05-14T11:07:48.968Z,1.53
2023-05-14T11:10:21.654Z,1.33
2023-05-14T11:15:26.221Z,1.30
2023-05-14T11:17:54.535Z,1.40
2023-05-14T11:20:24.479Z,1.48
2023-05-14T11:22:51.976Z,1.27
2023-05-14T11:25:22.421Z,1.40
2023-05-14T11:27:50.784Z,1.67
2023-05-14T11:30:20.305Z,1.30
2023-05-14T11:32:49.474Z,1.50
2023-05-14T11:35:18.441Z,1.30
2023-05-14T11:37:52.809Z,1.42
2023-05-14T11:40:20.682Z,1.40
2023-05-14T11:42:52.698Z,1.10
2023-05-14T11:45:27.841Z,1.30
2023-05-14T11:47:55.280Z,1.23
2023-05-14T11:50:23.566Z,1.38
2023-05-14T11:52:51.195Z,1.20
2023-05-14T11:55:18.538Z,1.38
2023-05-14T11:57:46.436Z,1.00
2023-05-14T12:00:16.922Z,1.38
2023-05-14T12:02:44.447Z,1.10
2023-05-14T12:05:13.502Z,1.38
2023-05-14T12:07:42.061Z,1.30
2023-05-14T12:10:12.217Z,1.35
2023-05-14T12:12:39.685Z,1.52
2023-05-14T12:15:14.137Z,1.45
2023-05-14T12:17:41.617Z,1.98
2023-05-14T12:20:11.196Z,1.33
2023-05-14T12:22:39.711Z,1.10
2023-05-14T12:25:13.682Z,1.27
2023-05-14T12:27:44.914Z,1.20
2023-05-14T12:30:27.525Z,1.63
2023-05-14T12:32:55.076Z,1.63
2023-05-14T12:35:23.102Z,1.60
2023-05-14T12:37:50.849Z,1.30
2023-05-14T12:40:18.477Z,1.30
2023-05-14T12:42:46.458Z,1.52
2023-05-14T12:45:13.934Z,1.33
2023-05-14T12:47:43.465Z,1.90
2023-05-14T12:50:11.295Z,1.30
2023-05-14T12:52:39.935Z,1.20
2023-05-14T12:55:09.523Z,1.30
2023-05-14T12:57:39.316Z,1.50
2023-05-14T13:00:12.237Z,1.42
2023-05-14T13:02:42.914Z,1.52
2023-05-14T13:05:14.525Z,1.50
2023-05-14T13:07:42.710Z,1.52
2023-05-14T13:10:10.656Z,1.67
2023-05-14T13:12:39.001Z,1.55
2023-05-14T13:15:07.047Z,1.38
2023-05-14T13:17:34.210Z,1.83
2023-05-14T13:20:01.808Z,1.70
2023-05-14T13:22:31.556Z,1.50
2023-05-14T13:24:59.282Z,1.77
2023-05-14T13:27:26.869Z,2.20
2023-05-14T13:29:54.148Z,1.60
2023-05-14T13:32:21.557Z,1.73
2023-05-14T13:34:48.760Z,1.80
2023-05-14T13:37:16.374Z,1.73
2023-05-14T13:39:46.880Z,1.70
2023-05-14T13:42:14.026Z,1.60
2023-05-14T13:44:43.895Z,1.83
2023-05-14T13:47:11.547Z,1.50
2023-05-14T13:49:39.070Z,1.40
2023-05-14T13:52:06.841Z,1.80
2023-05-14T13:54:34.472Z,1.65
2023-05-14T13:57:01.947Z,1.80
2023-05-14T13:59:29.170Z,1.80
2023-05-14T14:01:56.562Z,2.00
2023-05-14T14:04:25.767Z,1.80
2023-05-14T14:06:53.268Z,1.50
2023-05-14T14:09:22.310Z,1.58
2023-05-14T14:11:49.685Z,1.50
2023-05-14T14:14:17.703Z,1.88
2023-05-14T14:16:45.048Z,2.03
2023-05-14T14:19:12.439Z,1.88
2023-05-14T14:21:42.888Z,1.88
2023-05-14T14:24:10.084Z,1.85
2023-05-14T14:26:37.334Z,1.88
2023-05-14T14:29:04.596Z,1.63
2023-05-14T14:31:32.197Z,1.70
2023-05-14T14:33:59.444Z,1.58
2023-05-14T14:36:27.028Z,1.90
2023-05-14T14:38:54.282Z,1.80
2023-05-14T14:41:22.461Z,1.70
2023-05-14T14:43:49.941Z,1.80
2023-05-14T14:46:17.176Z,1.80
2023-05-14T14:48:44.459Z,1.60
2023-05-14T14:51:11.690Z,2.08
2023-05-14T14:53:40.532Z,2.00
2023-05-14T14:56:07.955Z,1.92
2023-05-14T14:58:35.210Z,2.20
2023-05-14T15:01:02.601Z,2.10
2023-05-14T15:03:30.324Z,2.08
2023-05-14T15:05:57.856Z,1.80
2023-05-14T15:08:27.591Z,2.30
2023-05-14T15:10:59.531Z,1.90
2023-05-14T15:13:27.259Z,2.17
2023-05-14T15:15:54.896Z,2.85
2023-05-14T15:18:22.195Z,1.90
2023-05-14T15:20:49.922Z,2.03
2023-05-14T15:23:17.434Z,1.90
2023-05-14T15:25:44.907Z,1.65
2023-05-14T15:28:12.329Z,1.70
2023-05-14T15:30:39.666Z,1.80
2023-05-14T15:33:10.784Z,1.83
2023-05-14T15:35:38.189Z,2.10
2023-05-14T15:38:07.146Z,2.10
2023-05-14T15:40:35.371Z,2.10
2023-05-14T15:43:02.855Z,1.98
2023-05-14T15:45:30.090Z,2.28
2023-05-14T15:47:57.563Z,1.90
2023-05-14T15:50:26.096Z,2.33
2023-05-14T15:52:54.123Z,2.33
2023-05-14T15:55:21.619Z,2.17
2023-05-14T15:57:48.951Z,2.20
2023-05-14T16:00:16.554Z,2.72
2023-05-14T16:02:43.976Z,2.55
2023-05-14T16:05:11.210Z,2.25
2023-05-14T16:07:38.743Z,2.30
2023-05-14T16:10:07.224Z,2.42
2023-05-14T16:12:35.959Z,2.30
2023-05-14T16:15:03.383Z,2.72
2023-05-14T16:17:35.151Z,2.30
2023-05-14T16:20:04.885Z,2.35
2023-05-14T16:22:34.844Z,2.72
2023-05-14T16:25:04.505Z,2.50
2023-05-14T16:27:34.465Z,2.60
2023-05-14T16:30:01.745Z,2.42
2023-05-14T16:32:33.856Z,2.30
2023-05-14T16:35:03.124Z,2.58
2023-05-14T16:37:34.955Z,2.60
2023-05-14T16:40:02.761Z,2.70
2023-05-14T16:42:32.766Z,2.60
2023-05-14T16:45:00.033Z,2.33
2023-05-14T16:47:27.541Z,2.47
2023-05-14T16:49:55.050Z,4.30
2023-05-14T16:52:22.378Z,2.60
2023-05-14T16:54:49.694Z,2.63
2023-05-14T16:57:17.219Z,2.97
2023-05-14T16:59:44.460Z,2.60
2023-05-14T17:02:11.955Z,3.10
2023-05-14T17:04:42.243Z,2.83
2023-05-14T17:07:10.425Z,3.00
2023-05-14T17:09:37.726Z,3.33
2023-05-14T17:12:05.510Z,3.28
2023-05-14T17:14:32.847Z,3.40
2023-05-14T17:17:00.156Z,3.17
2023-05-14T17:19:27.627Z,3.30
2023-05-14T17:21:54.954Z,3.05
2023-05-14T17:24:22.328Z,3.50
2023-05-14T17:26:49.713Z,3.13
2023-05-14T17:29:17.480Z,3.60
2023-05-14T17:31:44.746Z,3.13
2023-05-14T17:34:12.229Z,3.83
2023-05-14T17:36:39.703Z,3.50
2023-05-14T17:39:07.129Z,3.50
2023-05-14T17:41:34.241Z,3.10
2023-05-14T17:44:01.599Z,3.10
2023-05-14T17:46:29.008Z,3.28
2023-05-14T17:48:58.324Z,2.53
2023-05-14T17:51:25.996Z,2.78
2023-05-14T17:53:53.519Z,3.03
2023-05-14T17:56:21.120Z,2.55
2023-05-14T17:58:49.827Z,3.00
2023-05-14T18:01:18.181Z,2.97
2023-05-14T18:03:45.962Z,2.63
2023-05-14T18:06:14.105Z,2.50
2023-05-14T18:08:41.879Z,2.60
2023-05-14T18:11:09.580Z,2.38
2023-05-14T18:13:36.983Z,2.33
2023-05-14T18:16:06.094Z,2.47
2023-05-14T18:18:33.494Z,2.17
2023-05-14T18:21:01.051Z,1.77
2023-05-14T18:23:28.540Z,2.35
2023-05-14T18:25:56.021Z,2.00
2023-05-14T18:28:23.636Z,1.90
2023-05-14T18:30:51.621Z,2.28
2023-05-14T18:33:21.522Z,3.08
2023-05-14T18:35:48.779Z,2.20
2023-05-14T18:38:18.018Z,2.20
2023-05-14T18:40:45.826Z,2.42
2023-05-14T18:43:15.251Z,2.47
2023-05-14T18:45:47.414Z,2.50
2023-05-14T18:48:16.555Z,2.45
2023-05-14T18:50:43.954Z,2.55
2023-05-14T18:53:11.337Z,2.28
2023-05-14T18:55:43.353Z,2.00
2023-05-14T18:58:10.892Z,2.30
2023-05-14T19:00:38.279Z,2.33
2023-05-14T19:03:05.923Z,2.30
2023-05-14T19:05:36.213Z,2.25
2023-05-14T19:08:03.745Z,2.40
2023-05-14T19:10:31.492Z,2.53
2023-05-14T19:12:59.568Z,2.47
2023-05-14T19:15:27.510Z,2.17
2023-05-14T19:17:57.601Z,2.70
2023-05-14T19:20:25.001Z,2.75
2023-05-14T19:22:56.271Z,2.92
2023-05-14T19:25:23.891Z,2.50
2023-05-14T19:27:53.714Z,2.25
2023-05-14T19:30:22.928Z,2.50
2023-05-14T19:32:50.174Z,2.42
2023-05-14T19:35:17.703Z,2.40
2023-05-14T19:37:46.247Z,2.55
2023-05-14T19:40:13.458Z,2.40
2023-05-14T19:42:41.123Z,2.42
2023-05-14T19:45:09.024Z,2.50
2023-05-14T19:47:36.594Z,2.55
2023-05-14T19:50:04.220Z,2.55
2023-05-14T19:52:33.996Z,2.22
2023-05-14T19:55:04.487Z,2.50
2023-05-14T19:57:32.603Z,2.85
2023-05-14T20:00:00.031Z,2.95
2023-05-14T20:02:32.201Z,2.28
2023-05-14T20:04:59.572Z,2.60
2023-05-14T20:07:30.042Z,2.58
2023-05-14T20:09:57.462Z,2.80
2023-05-14T20:12:24.738Z,2.95
2023-05-14T20:14:51.953Z,3.10
2023-05-14T20:17:19.676Z,3.50
2023-05-14T20:19:47.234Z,3.35
2023-05-14T20:22:15.164Z,3.22
2023-05-14T20:24:42.453Z,3.40
2023-05-14T20:27:09.932Z,3.20
2023-05-14T20:29:36.954Z,4.47
2023-05-14T20:32:04.674Z,3.60
2023-05-14T20:34:32.045Z,3.35
2023-05-14T20:36:59.182Z,3.55
2023-05-14T20:39:26.449Z,3.47
2023-05-14T20:41:53.777Z,3.25
2023-05-14T20:44:24.093Z,3.05
2023-05-14T20:46:51.641Z,3.40
2023-05-14T20:49:18.812Z,2.95
2023-05-14T20:51:46.159Z,3.13
2023-05-14T20:54:13.413Z,2.65
2023-05-14T20:56:40.774Z,3.53
2023-05-14T20:59:08.010Z,3.25
2023-05-14T21:01:35.616Z,2.67
2023-05-14T21:04:03.558Z,3.20
2023-05-14T21:06:30.980Z,2.97
2023-05-14T21:09:07.083Z,2.95
2023-05-14T21:11:34.254Z,3.00
2023-05-14T21:14:03.092Z,2.75
2023-05-14T21:16:32.042Z,3.00
2023-05-14T21:18:59.461Z,3.05
2023-05-14T21:21:29.431Z,2.97
2023-05-14T21:23:56.629Z,2.70
2023-05-14T21:26:23.878Z,4.00
2023-05-14T21:28:50.987Z,3.03
2023-05-14T21:31:18.491Z,2.70
2023-05-14T21:33:45.866Z,3.20
2023-05-14T21:36:16.188Z,3.08
2023-05-14T21:38:43.623Z,3.17
2023-05-14T21:41:10.806Z,3.10
2023-05-14T21:43:40.736Z,3.25
2023-05-14T21:46:08.704Z,3.13
2023-05-14T21:48:36.205Z,3.53
2023-05-14T21:51:03.848Z,3.10
2023-05-14T21:53:31.055Z,3.17
2023-05-14T21:55:58.592Z,2.85
2023-05-14T21:58:28.857Z,3.53
2023-05-14T22:00:56.052Z,3.40
2023-05-14T22:03:23.495Z,3.28
2023-05-14T22:05:51.068Z,2.58
2023-05-14T22:08:18.647Z,2.95
2023-05-14T22:10:47.260Z,2.95
2023-05-14T22:13:14.615Z,3.13
2023-05-14T22:15:41.917Z,2.65
2023-05-14T22:18:09.145Z,2.92
2023-05-14T22:20:36.547Z,3.67
2023-05-14T22:23:03.675Z,3.10
2023-05-14T22:25:30.773Z,3.30
2023-05-14T22:27:58.242Z,2.95
2023-05-14T22:30:25.459Z,3.25
2023-05-14T22:32:53.717Z,3.30
2023-05-14T22:35:21.415Z,3.00
2023-05-14T22:37:48.835Z,3.40
2023-05-14T22:40:16.285Z,4.13
2023-05-14T22:42:43.859Z,3.22
2023-05-14T22:45:11.447Z,4.00
2023-05-14T22:47:39.013Z,3.83
2023-05-14T22:50:11.468Z,3.50
2023-05-14T22:52:39.672Z,4.22
2023-05-14T22:55:08.005Z,4.80
2023-05-14T22:57:35.415Z,4.13
2023-05-14T23:00:04.621Z,4.28
2023-05-14T23:02:33.831Z,5.47
2023-05-14T23:05:01.085Z,5.00
2023-05-14T23:07:31.059Z,5.95
2023-05-14T23:09:58.175Z,6.45
2023-05-14T23:12:25.450Z,6.60
2023-05-14T23:14:52.828Z,6.57
2023-05-14T23:17:20.147Z,6.18
2023-05-14T23:19:47.423Z,6.13
2023-05-14T23:22:14.716Z,6.05
2023-05-14T23:24:42.072Z,5.97
2023-05-14T23:27:11.795Z,6.97
2023-05-14T23:29:38.986Z,6.45
2023-05-14T23:32:06.649Z,7.38
2023-05-14T23:34:34.760Z,8.30
2023-05-14T23:37:02.518Z,7.93
2023-05-14T23:39:30.577Z,6.90
2023-05-14T23:41:57.846Z,7.78
2023-05-14T23:44:24.911Z,7.80
2023-05-14T23:46:52.171Z,7.68
2023-05-14T23:49:20.112Z,9.00
2023-05-14T23:51:47.380Z,8.23
2023-05-14T23:54:14.494Z,9.50
2023-05-14T23:56:41.698Z,8.50
2023-05-14T23:59:09.332Z,8.35
